.
WxDataArchive / Data Records for 2009-02-08
2009-02-07 February 2009 2009-02-09

Data Records for Sunday, 08 February 2009

Time	Temp	Chill	HIndex	Humid	Dewpt	 Wind 	HiWind	WindDir	Rain 	Barom 
-----	----	-----	------	-----	-----	------	------	-------	-----	----- 
00:00	51.0	51.0	51.0	89	47.9	3	8	270	0.00	30.078 
00:05	50.7	50.7	50.7	89	47.6	4	10	270	0.00	30.079 
00:10	50.5	50.5	50.5	89	47.4	4	9	270	0.00	30.075 
00:15	50.4	50.4	50.4	89	47.3	4	13	270	0.00	30.079 
00:20	49.9	49.9	49.9	89	46.8	3	10	248	0.00	30.080 
00:25	49.8	49.8	49.8	89	46.7	3	9	270	0.00	30.079 
00:30	49.5	48.3	49.5	89	46.4	4	9	270	0.00	30.080 
00:35	49.4	48.2	49.4	89	46.3	4	10	270	0.00	30.077 
00:40	49.2	47.3	49.2	89	46.1	5	11	270	0.00	30.077 
00:45	49.1	47.2	49.1	89	46.0	5	15	248	0.00	30.078 
00:50	48.9	47.6	48.9	89	45.8	4	15	270	0.00	30.078 
00:55	48.8	47.5	48.8	89	45.7	4	10	248	0.00	30.078 
01:00	48.5	48.5	48.5	89	45.4	3	9	270	0.00	30.079 
01:05	48.3	48.3	48.3	90	45.5	3	10	270	0.00	30.081 
01:10	48.0	48.0	48.0	90	45.2	3	6	248	0.00	30.085 
01:15	47.9	47.9	47.9	90	45.1	3	4	270	0.00	30.085 
01:20	47.7	47.7	47.7	90	44.9	3	12	248	0.00	30.086 
01:25	47.6	47.6	47.6	90	44.8	3	10	270	0.00	30.088 
01:30	47.4	47.4	47.4	91	44.9	3	7	270	0.00	30.090 
01:35	47.1	47.1	47.1	91	44.6	3	7	270	0.00	30.093 
01:40	46.7	46.7	46.7	91	44.2	2	5	248	0.00	30.099 
01:45	46.4	46.4	46.4	91	43.9	2	4	248	0.00	30.103 
01:50	46.1	46.1	46.1	91	43.6	3	4	270	0.00	30.104 
01:55	45.8	45.8	45.8	91	43.3	2	4	270	0.00	30.104 
02:00	45.7	45.7	45.7	91	43.2	3	6	270	0.00	30.109 
02:05	45.5	45.5	45.5	91	43.0	3	6	292	0.00	30.106 
02:10	45.4	45.4	45.4	91	42.9	2	4	248	0.00	30.107 
02:15	45.1	45.1	45.1	91	42.6	2	6	270	0.00	30.111 
02:20	45.1	45.1	45.1	90	42.3	2	6	270	0.00	30.118 
02:25	44.8	44.8	44.8	90	42.0	1	4	248	0.00	30.120 
02:30	44.5	44.5	44.5	90	41.8	1	4	248	0.00	30.122 
02:35	43.9	43.9	43.9	88	40.6	2	6	22	0.00	30.128 
02:40	43.3	43.3	43.3	83	38.5	3	7	292	0.00	30.132 
02:45	43.1	43.1	43.1	81	37.7	1	5	338	0.00	30.137 
02:50	42.5	42.5	42.5	78	36.1	2	7	292	0.00	30.138 
02:55	42.1	42.1	42.1	75	34.8	3	11	270	0.00	30.142 
03:00	41.6	41.6	41.6	74	33.9	3	9	270	0.00	30.145 
03:05	41.3	41.3	41.3	75	34.0	2	5	270	0.00	30.145 
03:10	40.9	40.9	40.9	75	33.6	2	4	338	0.00	30.153 
03:15	40.8	40.8	40.8	75	33.5	2	6	270	0.00	30.155 
03:20	40.5	40.5	40.5	76	33.5	2	5	248	0.00	30.155 
03:25	40.2	40.2	40.2	76	33.3	1	4	315	0.00	30.156 
03:30	39.9	39.9	39.9	76	33.0	1	4	0	0.00	30.161 
03:35	39.6	39.6	39.6	76	32.7	1	4	225	0.00	30.159 
03:40	39.3	39.3	39.3	77	32.7	1	4	292	0.00	30.159 
03:45	39.2	39.2	39.2	77	32.6	1	3	315	0.00	30.170 
03:50	39.1	39.1	39.1	78	32.8	1	4	315	0.00	30.174 
03:55	38.9	38.9	38.9	78	32.6	2	4	292	0.00	30.184 
04:00	38.6	38.6	38.6	78	32.3	1	4	292	0.00	30.188 
04:05	38.3	38.3	38.3	78	32.1	2	7	270	0.00	30.189 
04:10	38.2	38.2	38.2	78	32.0	1	5	292	0.00	30.188 
04:15	38.0	38.0	38.0	78	31.8	3	7	270	0.00	30.189 
04:20	37.9	37.9	37.9	78	31.7	1	3	225	0.00	30.189 
04:25	37.6	37.6	37.6	79	31.7	1	4	338	0.00	30.189 
04:30	37.5	37.5	37.5	79	31.6	1	4	338	0.00	30.192 
04:35	37.2	37.2	37.2	79	31.3	0	3	338	0.00	30.195 
04:40	37.0	37.0	37.0	80	31.4	0	2	338	0.00	30.196 
04:45	36.8	36.8	36.8	80	31.2	0	2	338	0.00	30.200 
04:50	36.6	36.6	36.6	81	31.3	0	2	338	0.00	30.202 
04:55	36.3	36.3	36.3	81	31.0	0	2	338	0.00	30.203 
05:00	36.2	36.2	36.2	81	30.9	0	2	338	0.00	30.206 
05:05	36.0	36.0	36.0	82	31.0	0	1	338	0.00	30.209 
05:10	35.9	35.9	35.9	82	31.0	0	1	338	0.00	30.209 
05:15	35.8	35.8	35.8	82	30.9	0	2	338	0.00	30.210 
05:20	35.6	35.6	35.6	82	30.7	0	1	338	0.00	30.212 
05:25	35.5	35.5	35.5	83	30.9	0	1	338	0.00	30.216 
05:30	35.5	35.5	35.5	83	30.9	0	2	338	0.00	30.218 
05:35	35.3	35.3	35.3	83	30.7	0	1	338	0.00	30.220 
05:40	35.2	35.2	35.2	83	30.6	0	2	338	0.00	30.223 
05:45	35.2	35.2	35.2	83	30.6	0	3	248	0.00	30.225 
05:50	35.0	35.0	35.0	83	30.4	0	1	248	0.00	30.225 
05:55	34.9	34.9	34.9	83	30.3	0	1	248	0.00	30.227 
06:00	34.7	34.7	34.7	83	30.1	0	2	248	0.00	30.232 
06:05	34.6	34.6	34.6	83	30.0	0	2	270	0.00	30.235 
06:10	34.4	34.4	34.4	83	29.8	0	2	270	0.00	30.242 
06:15	34.3	34.3	34.3	84	30.0	0	2	270	0.00	30.244 
06:20	34.3	34.3	34.3	83	29.7	0	3	270	0.00	30.245 
06:25	34.1	34.1	34.1	83	29.5	0	1	270	0.00	30.250 
06:30	34.0	34.0	34.0	84	29.7	0	1	270	0.00	30.257 
06:35	34.0	34.0	34.0	84	29.7	1	2	270	0.00	30.257 
06:40	33.8	33.8	33.8	83	29.2	0	2	270	0.00	30.259 
06:45	33.8	33.8	33.8	83	29.2	0	2	270	0.00	30.263 
06:50	33.7	33.7	33.7	83	29.1	0	2	270	0.00	30.270 
06:55	33.5	33.5	33.5	83	28.9	0	1	270	0.00	30.272 
07:00	33.4	33.4	33.4	83	28.8	0	1	270	0.00	30.273 
07:05	33.4	33.4	33.4	84	29.1	0	3	270	0.00	30.275 
07:10	33.5	33.5	33.5	84	29.2	0	3	270	0.00	30.278 
07:15	33.7	33.7	33.7	84	29.4	1	4	270	0.00	30.278 
07:20	33.8	33.8	33.8	83	29.2	0	2	338	0.00	30.283 
07:25	34.0	34.0	34.0	83	29.4	1	4	270	0.00	30.284 
07:30	34.1	34.1	34.1	82	29.2	0	2	270	0.00	30.286 
07:35	34.0	34.0	34.0	82	29.1	0	1	270	0.00	30.286 
07:40	33.8	33.8	33.8	82	28.9	0	1	270	0.00	30.289 
07:45	33.5	33.5	33.5	82	28.6	0	0	---	0.00	30.293 
07:50	33.4	33.4	33.4	82	28.5	0	0	---	0.00	30.298 
07:55	33.2	33.2	33.2	83	28.6	0	0	---	0.00	30.301 
08:00	33.2	33.2	33.2	83	28.6	0	0	---	0.00	30.304 
08:05	33.2	33.2	33.2	84	28.9	0	0	---	0.00	30.306 
08:10	33.4	33.4	33.4	84	29.1	0	0	---	0.00	30.306 
08:15	33.4	33.4	33.4	84	29.1	0	0	---	0.00	30.307 
08:20	33.5	33.5	33.5	84	29.2	0	0	---	0.00	30.309 
08:25	33.7	33.7	33.7	84	29.4	0	1	270	0.00	30.311 
08:30	33.8	33.8	33.8	84	29.5	0	1	270	0.00	30.316 
08:35	34.1	34.1	34.1	84	29.8	0	1	270	0.00	30.320 
08:40	34.3	34.3	34.3	83	29.7	0	0	---	0.00	30.323 
08:45	34.4	34.4	34.4	83	29.8	0	1	270	0.00	30.329 
08:50	34.4	34.4	34.4	83	29.8	0	0	---	0.00	30.334 
08:55	34.6	34.6	34.6	83	30.0	0	1	270	0.00	30.335 
09:00	34.7	34.7	34.7	82	29.8	0	1	270	0.00	30.335 
09:05	34.9	34.9	34.9	82	30.0	0	1	270	0.00	30.336 
09:10	35.0	35.0	35.0	82	30.1	0	0	---	0.00	30.338 
09:15	35.0	35.0	35.0	82	30.1	0	1	270	0.00	30.347 
09:20	35.2	35.2	35.2	81	30.0	0	1	270	0.00	30.350 
09:25	35.3	35.3	35.3	81	30.1	0	2	270	0.00	30.352 
09:30	35.3	35.3	35.3	81	30.1	0	1	270	0.00	30.352 
09:35	35.5	35.5	35.5	81	30.3	0	1	270	0.00	30.352 
09:40	35.5	35.5	35.5	81	30.3	0	2	270	0.00	30.353 
09:45	35.6	35.6	35.6	80	30.1	0	1	270	0.00	30.356 
09:50	35.6	35.6	35.6	80	30.1	0	1	270	0.00	30.358 
09:55	35.8	35.8	35.8	80	30.2	0	2	270	0.00	30.362 
10:00	35.8	35.8	35.8	80	30.2	1	3	270	0.00	30.364 
10:05	35.9	35.9	35.9	80	30.3	0	1	270	0.00	30.363 
10:10	35.9	35.9	35.9	80	30.3	0	2	270	0.00	30.363 
10:15	36.0	36.0	36.0	79	30.1	0	1	270	0.00	30.365 
10:20	36.2	36.2	36.2	79	30.3	0	2	270	0.00	30.365 
10:25	36.3	36.3	36.3	78	30.1	0	1	270	0.00	30.366 
10:30	36.5	36.5	36.5	78	30.3	0	1	270	0.00	30.365 
10:35	36.6	36.6	36.6	78	30.4	0	2	270	0.00	30.366 
10:40	36.9	36.9	36.9	78	30.7	0	0	---	0.00	30.370 
10:45	37.0	37.0	37.0	78	30.8	0	1	270	0.00	30.373 
10:50	37.2	37.2	37.2	76	30.3	0	2	270	0.00	30.376 
10:55	37.2	37.2	37.2	76	30.3	0	1	270	0.00	30.379 
11:00	37.2	37.2	37.2	75	30.0	0	2	292	0.00	30.381 
11:05	37.3	37.3	37.3	75	30.1	0	2	292	0.00	30.380 
11:10	37.5	37.5	37.5	75	30.3	0	2	292	0.00	30.381 
11:15	37.5	37.5	37.5	74	30.0	0	2	292	0.00	30.385 
11:20	37.6	37.6	37.6	74	30.1	0	1	292	0.00	30.390 
11:25	37.8	37.8	37.8	74	30.3	0	1	292	0.00	30.394 
11:30	37.8	37.8	37.8	73	29.9	0	2	292	0.00	30.397 
11:35	37.8	37.8	37.8	73	29.9	0	1	292	0.00	30.395 
11:40	37.8	37.8	37.8	73	29.9	0	1	292	0.00	30.395 
11:45	37.8	37.8	37.8	73	29.9	0	1	292	0.00	30.396 
11:50	37.9	37.9	37.9	74	30.4	0	1	292	0.00	30.394 
11:55	38.0	38.0	38.0	73	30.1	0	1	292	0.00	30.396 
12:00	38.0	38.0	38.0	73	30.1	0	2	292	0.00	30.397 
12:05	38.2	38.2	38.2	72	30.0	0	1	292	0.00	30.398 
12:10	38.3	38.3	38.3	72	30.1	0	1	292	0.00	30.398 
12:15	38.2	38.2	38.2	71	29.6	0	2	292	0.00	30.396 
12:20	38.2	38.2	38.2	71	29.6	0	1	292	0.00	30.395 
12:25	38.3	38.3	38.3	72	30.1	0	1	292	0.00	30.396 
12:30	38.5	38.5	38.5	72	30.3	0	2	292	0.00	30.397 
12:35	38.3	38.3	38.3	71	29.7	0	1	292	0.00	30.398 
12:40	38.5	38.5	38.5	71	29.9	0	0	---	0.00	30.397 
12:45	38.6	38.6	38.6	71	30.0	0	2	292	0.00	30.389 
12:50	38.6	38.6	38.6	71	30.0	0	1	292	0.00	30.384 
12:55	38.8	38.8	38.8	71	30.2	0	1	292	0.00	30.386 
13:00	38.9	38.9	38.9	71	30.3	0	0	---	0.00	30.387 
13:05	38.9	38.9	38.9	70	30.0	0	1	292	0.00	30.389 
13:10	38.9	38.9	38.9	70	30.0	0	1	292	0.00	30.385 
13:15	39.1	39.1	39.1	70	30.2	0	2	292	0.00	30.383 
13:20	39.1	39.1	39.1	69	29.8	0	2	248	0.00	30.382 
13:25	39.2	39.2	39.2	68	29.5	0	2	248	0.00	30.381 
13:30	39.1	39.1	39.1	68	29.4	0	1	248	0.00	30.374 
13:35	39.2	39.2	39.2	68	29.5	0	0	---	0.00	30.369 
13:40	39.3	39.3	39.3	69	30.0	0	2	248	0.00	30.368 
13:45	39.3	39.3	39.3	69	30.0	0	2	225	0.00	30.367 
13:50	39.3	39.3	39.3	68	29.6	0	2	248	0.00	30.367 
13:55	39.3	39.3	39.3	68	29.6	0	2	248	0.00	30.367 
14:00	39.3	39.3	39.3	69	30.0	0	1	248	0.00	30.366 
14:05	39.5	39.5	39.5	69	30.2	0	1	248	0.00	30.368 
14:10	39.6	39.6	39.6	69	30.3	0	2	248	0.00	30.365 
14:15	39.8	39.8	39.8	69	30.5	0	3	225	0.00	30.361 
14:20	39.9	39.9	39.9	68	30.2	0	2	225	0.00	30.359 
14:25	39.9	39.9	39.9	67	29.8	1	3	225	0.00	30.357 
14:30	39.6	39.6	39.6	68	29.9	1	3	248	0.00	30.355 
14:35	39.5	39.5	39.5	69	30.2	1	3	248	0.00	30.355 
14:40	39.6	39.6	39.6	70	30.6	0	2	248	0.00	30.357 
14:45	39.8	39.8	39.8	70	30.8	1	3	248	0.00	30.357 
14:50	39.8	39.8	39.8	70	30.8	1	3	248	0.00	30.357 
14:55	39.8	39.8	39.8	70	30.8	1	2	292	0.00	30.356 
15:00	40.1	40.1	40.1	70	31.1	0	2	270	0.00	30.355 
15:05	39.9	39.9	39.9	68	30.2	2	6	248	0.00	30.360 
15:10	39.9	39.9	39.9	69	30.6	0	2	248	0.00	30.361 
15:15	40.2	40.2	40.2	67	30.1	2	5	248	0.00	30.361 
15:20	40.5	40.5	40.5	68	30.8	1	4	248	0.00	30.360 
15:25	40.3	40.3	40.3	67	30.2	1	5	248	0.00	30.361 
15:30	40.6	40.6	40.6	68	30.9	1	3	248	0.00	30.358 
15:35	40.8	40.8	40.8	65	30.0	1	4	248	0.00	30.357 
15:40	40.9	40.9	40.9	65	30.1	1	6	248	0.00	30.360 
15:45	41.1	41.1	41.1	65	30.2	1	4	248	0.00	30.359 
15:50	40.5	40.5	40.5	65	29.7	1	4	248	0.00	30.360 
15:55	39.9	39.9	39.9	66	29.5	2	4	248	0.00	30.363 
16:00	39.5	39.5	39.5	68	29.8	1	3	248	0.00	30.364 
16:05	39.3	39.3	39.3	69	30.0	1	3	248	0.00	30.371 
16:10	39.3	39.3	39.3	68	29.6	2	5	248	0.00	30.373 
16:15	39.6	39.6	39.6	69	30.3	1	4	270	0.00	30.371 
16:20	39.5	39.5	39.5	68	29.8	1	5	248	0.00	30.372 
16:25	39.3	39.3	39.3	69	30.0	0	2	248	0.00	30.376 
16:30	39.1	39.1	39.1	68	29.4	1	3	248	0.00	30.374 
16:35	38.9	38.9	38.9	69	29.6	1	4	248	0.00	30.374 
16:40	38.9	38.9	38.9	70	30.0	1	5	248	0.00	30.376 
16:45	39.1	39.1	39.1	70	30.2	1	3	248	0.00	30.377 
16:50	38.8	38.8	38.8	69	29.5	2	5	248	0.00	30.378 
16:55	38.5	38.5	38.5	70	29.6	1	6	248	0.00	30.376 
17:00	38.3	38.3	38.3	70	29.4	1	4	248	0.00	30.376 
17:05	38.2	38.2	38.2	71	29.6	1	3	248	0.00	30.377 
17:10	38.0	38.0	38.0	71	29.4	0	1	248	0.00	30.377 
17:15	37.9	37.9	37.9	72	29.7	1	4	248	0.00	30.378 
17:20	37.8	37.8	37.8	72	29.6	0	1	248	0.00	30.377 
17:25	37.5	37.5	37.5	72	29.3	0	1	248	0.00	30.377 
17:30	37.3	37.3	37.3	73	29.5	0	1	248	0.00	30.374 
17:35	37.2	37.2	37.2	73	29.4	0	1	315	0.00	30.372 
17:40	37.0	37.0	37.0	73	29.2	0	1	315	0.00	30.372 
17:45	36.9	36.9	36.9	74	29.4	0	2	315	0.00	30.375 
17:50	36.8	36.8	36.8	74	29.3	0	2	248	0.00	30.373 
17:55	36.6	36.6	36.6	75	29.4	0	3	248	0.00	30.374 
18:00	36.5	36.5	36.5	75	29.3	0	3	270	0.00	30.371 
18:05	36.3	36.3	36.3	75	29.1	0	1	270	0.00	30.376 
18:10	36.0	36.0	36.0	76	29.2	0	1	270	0.00	30.377 
18:15	35.9	35.9	35.9	76	29.1	0	1	270	0.00	30.375 
18:20	35.8	35.8	35.8	76	29.0	0	0	---	0.00	30.376 
18:25	35.6	35.6	35.6	77	29.1	0	2	270	0.00	30.378 
18:30	35.5	35.5	35.5	77	29.0	1	3	270	0.00	30.379 
18:35	35.5	35.5	35.5	77	29.0	0	2	248	0.00	30.378 
18:40	35.5	35.5	35.5	78	29.3	0	2	248	0.00	30.379 
18:45	35.3	35.3	35.3	78	29.1	0	1	248	0.00	30.378 
18:50	35.2	35.2	35.2	79	29.4	0	1	248	0.00	30.382 
18:55	35.2	35.2	35.2	79	29.4	0	2	248	0.00	30.382 
19:00	35.2	35.2	35.2	79	29.4	0	2	248	0.00	30.383 
19:05	35.3	35.3	35.3	79	29.4	0	2	248	0.00	30.385 
19:10	35.3	35.3	35.3	79	29.4	0	1	248	0.00	30.384 
19:15	35.3	35.3	35.3	79	29.4	1	3	248	0.00	30.385 
19:20	35.3	35.3	35.3	79	29.4	0	1	248	0.00	30.387 
19:25	35.3	35.3	35.3	79	29.4	0	1	248	0.00	30.387 
19:30	35.3	35.3	35.3	79	29.4	0	0	---	0.00	30.393 
19:35	35.2	35.2	35.2	79	29.4	0	2	248	0.00	30.395 
19:40	35.0	35.0	35.0	79	29.2	0	0	---	0.00	30.392 
19:45	34.9	34.9	34.9	79	29.1	0	0	---	0.00	30.394 
19:50	34.6	34.6	34.6	79	28.8	0	0	---	0.00	30.393 
19:55	34.3	34.3	34.3	79	28.5	0	0	---	0.00	30.397 
20:00	34.0	34.0	34.0	80	28.5	0	0	---	0.00	30.398 
20:05	33.7	33.7	33.7	81	28.5	0	0	---	0.00	30.393 
20:10	33.4	33.4	33.4	81	28.2	0	0	---	0.00	30.392 
20:15	33.1	33.1	33.1	82	28.2	0	0	---	0.00	30.393 
20:20	32.8	32.8	32.8	82	27.9	0	0	---	0.00	30.393 
20:25	32.5	32.5	32.5	82	27.6	0	0	---	0.00	30.396 
20:30	32.2	32.2	32.2	83	27.6	0	0	---	0.00	30.396 
20:35	32.1	32.1	32.1	84	27.8	0	0	---	0.00	30.400 
20:40	32.1	32.1	32.1	84	27.8	0	0	---	0.00	30.403 
20:45	32.2	32.2	32.2	85	28.2	0	2	248	0.00	30.402 
20:50	32.5	32.5	32.5	85	28.5	0	1	248	0.00	30.401 
20:55	32.5	32.5	32.5	86	28.8	0	0	---	0.00	30.398 
21:00	32.7	32.7	32.7	85	28.7	0	0	---	0.00	30.393 
21:05	32.5	32.5	32.5	85	28.5	0	0	---	0.00	30.392 
21:10	32.2	32.2	32.2	85	28.2	0	0	---	0.00	30.391 
21:15	31.9	31.9	31.9	85	27.9	0	0	---	0.00	30.395 
21:20	31.5	31.5	31.5	85	27.5	0	0	---	0.00	30.393 
21:25	31.2	31.2	31.2	85	27.2	0	0	---	0.00	30.392 
21:30	30.9	30.9	30.9	85	26.9	0	0	---	0.00	30.389 
21:35	30.6	30.6	30.6	85	26.6	0	0	---	0.00	30.389 
21:40	30.1	30.1	30.1	85	26.1	0	0	---	0.00	30.387 
21:45	29.7	29.7	29.7	85	25.8	0	0	---	0.00	30.390 
21:50	29.4	29.4	29.4	85	25.5	0	0	---	0.00	30.388 
21:55	29.1	29.1	29.1	85	25.2	0	0	---	0.00	30.389 
22:00	28.8	28.8	28.8	86	25.2	0	0	---	0.00	30.389 
22:05	28.4	28.4	28.4	86	24.8	0	0	---	0.00	30.391 
22:10	28.2	28.2	28.2	87	24.8	0	0	---	0.00	30.391 
22:15	28.1	28.1	28.1	87	24.7	0	0	---	0.00	30.393 
22:20	27.9	27.9	27.9	87	24.5	0	0	---	0.00	30.391 
22:25	27.8	27.8	27.8	88	24.7	0	0	---	0.00	30.387 
22:30	27.6	27.6	27.6	88	24.5	0	0	---	0.00	30.387 
22:35	27.5	27.5	27.5	88	24.4	0	0	---	0.00	30.388 
22:40	27.2	27.2	27.2	88	24.1	0	0	---	0.00	30.387 
22:45	26.9	26.9	26.9	88	23.8	0	0	---	0.00	30.387 
22:50	26.7	26.7	26.7	88	23.6	0	0	---	0.00	30.386 
22:55	26.4	26.4	26.4	88	23.3	0	0	---	0.00	30.386 
23:00	26.3	26.3	26.3	88	23.2	0	0	---	0.00	30.387 
23:05	26.1	26.1	26.1	89	23.3	0	0	---	0.00	30.386 
23:10	26.0	26.0	26.0	89	23.2	0	0	---	0.00	30.386 
23:15	25.8	25.8	25.8	89	23.0	0	0	---	0.00	30.385 
23:20	25.7	25.7	25.7	89	22.9	0	0	---	0.00	30.384 
23:25	25.6	25.6	25.6	89	22.8	0	0	---	0.00	30.384 
23:30	25.4	25.4	25.4	89	22.6	0	0	---	0.00	30.384 
23:35	25.3	25.3	25.3	90	22.8	0	0	---	0.00	30.384 
23:40	25.3	25.3	25.3	90	22.8	0	0	---	0.00	30.380 
23:45	25.1	25.1	25.1	90	22.6	0	0	---	0.00	30.376 
23:50	25.0	25.0	25.0	90	22.5	0	0	---	0.00	30.377 
23:55	25.0	25.0	25.0	90	22.5	0	0	---	0.00	30.380 

CoCoRaHS
IN-AL-39
A2 Web Hosting
Creative Commons License
GoDaddy
search engine by freefind advanced

loaded 2018-11-19 10:17:31 • last modified 2010-11-18 10:43:29
Privacy PolicyDisclaimer
• wx.awcolley.com is powered by PmWiki v.2002016 •
• all content (unless otherwise noted) © 2018 A W Colley